Weather at Gustavus Airport

Public forecast

Using degrees Fahrenheit for public forecast. Weather courtesy of forecast.io.

Current aviation weather report (METAR) for Gustavus Airport

Retrieved 2021/07/29 23:56 UTC (40 minutes ago):

PAGS 292356Z AUTO VRB04KT 10SM CLR 23/09 A3018 RMK AO2 SLPNO 6//// T02280089 58007

Aviation forecast (TAF) for Gustavus Airport

Retrieved 2021-07-30 00:28 UTC (8 minutes ago):

TAF PAGS 292326Z 3000/3024 VRB04KT P6SM SKC FM301700 31005KT P6SM SCT250 AMD LTD TO CLD VIS AND WIND